Time;durP1;ratioP1;P1;durP2;ratioP2;P2;SDS_P1;SDS_P2;PMS_P1;PMS_P2;Temp;Humidity;BMP_temperature;BMP_pressure;BME280_temperature;BME280_humidity;BME280_pressure;Samples;Min_cycle;Max_cycle;Signal;HPM_P1;HPM_P2
2022/11/03 00:00:56;;;;;;;4.72;2.25;;;8.30;99.40;;;;;;6178679;28;20061;-82
2022/11/03 00:03:57;;;;;;;6.90;2.60;;;8.30;99.40;;;;;;6178198;28;20054;-81
2022/11/03 00:06:59;;;;;;;4.43;1.80;;;8.30;99.40;;;;;;6177245;28;20436;-82
2022/11/03 00:10:02;;;;;;;4.25;1.70;;;8.20;99.40;;;;;;6179240;28;20055;-82
2022/11/03 00:13:04;;;;;;;7.20;2.03;;;8.20;99.30;;;;;;6172511;28;20044;-81
2022/11/03 00:16:07;;;;;;;3.97;1.52;;;8.10;99.40;;;;;;6158645;28;20047;-81
2022/11/03 00:19:10;;;;;;;10.63;2.22;;;8.10;99.50;;;;;;6160283;28;20051;-82
2022/11/03 00:22:11;;;;;;;2.95;1.33;;;8.00;99.50;;;;;;6161438;28;20413;-82
2022/11/03 00:25:14;;;;;;;4.00;1.60;;;8.00;99.60;;;;;;6160922;28;20054;-82
2022/11/03 00:28:16;;;;;;;7.13;1.70;;;8.00;99.60;;;;;;6159464;28;20056;-82
2022/11/03 00:31:19;;;;;;;6.32;2.17;;;8.00;99.60;;;;;;6159406;28;20054;-82
2022/11/03 00:34:21;;;;;;;9.40;2.35;;;8.00;99.70;;;;;;6158316;28;20047;-81
2022/11/03 00:37:22;;;;;;;4.38;1.90;;;7.90;99.60;;;;;;6159047;28;20054;-82
2022/11/03 00:40:25;;;;;;;3.70;1.58;;;7.90;99.60;;;;;;6159416;28;20058;-80
2022/11/03 00:43:29;;;;;;;4.82;1.90;;;7.70;99.70;;;;;;6158862;28;20039;-80
2022/11/03 00:46:33;;;;;;;5.63;1.85;;;7.70;99.80;;;;;;6159054;28;20054;-81
2022/11/03 00:49:35;;;;;;;5.65;1.75;;;7.70;99.70;;;;;;6160185;28;20055;-82
2022/11/03 00:52:37;;;;;;;6.43;1.63;;;7.70;99.70;;;;;;6160553;28;20056;-81
2022/11/03 00:55:40;;;;;;;3.80;1.65;;;7.60;99.70;;;;;;6157134;28;20055;-80
2022/11/03 00:58:42;;;;;;;7.53;2.28;;;7.60;99.70;;;;;;6157279;28;20058;-79
2022/11/03 01:01:44;;;;;;;4.55;2.25;;;7.50;99.80;;;;;;6158190;28;20066;-80
2022/11/03 01:08:06;;;;;;;7.45;2.28;;;7.50;99.60;;;;;;6183690;28;20046;-82
2022/11/03 01:14:33;;;;;;;7.18;1.95;;;7.50;99.50;;;;;;6187433;28;20103;-80
2022/11/03 01:17:34;;;;;;;5.35;2.03;;;7.50;99.50;;;;;;6191217;28;20047;-81
2022/11/03 01:20:36;;;;;;;7.90;1.67;;;7.50;99.60;;;;;;6194006;28;20054;-82
2022/11/03 01:23:38;;;;;;;7.85;2.00;;;7.40;99.60;;;;;;6191407;28;20050;-82
2022/11/03 01:26:41;;;;;;;3.95;1.63;;;7.40;99.60;;;;;;6188987;28;20368;-82
2022/11/03 01:29:43;;;;;;;4.72;2.28;;;7.30;99.80;;;;;;6187019;28;20058;-82
2022/11/03 01:32:45;;;;;;;4.80;1.83;;;7.30;99.80;;;;;;6186477;28;20047;-82
2022/11/03 01:35:47;;;;;;;5.35;1.85;;;7.20;99.90;;;;;;6184659;28;20062;-82
2022/11/03 01:38:48;;;;;;;6.72;2.08;;;7.20;99.90;;;;;;6182611;28;20179;-81
2022/11/03 01:41:52;;;;;;;4.40;1.95;;;7.20;99.90;;;;;;6191965;28;20057;-81
2022/11/03 01:44:54;;;;;;;5.03;2.10;;;7.10;99.90;;;;;;6208716;28;20049;-81
2022/11/03 01:47:55;;;;;;;6.35;2.28;;;7.10;99.90;;;;;;6208739;28;20061;-81
2022/11/03 01:50:57;;;;;;;2.95;1.95;;;7.10;99.90;;;;;;6208326;28;20053;-81
2022/11/03 01:54:03;;;;;;;16.35;2.13;;;7.00;99.90;;;;;;6207769;28;20054;-81
2022/11/03 01:57:11;;;;;;;12.45;1.70;;;7.00;99.90;;;;;;6207411;28;20050;-81
2022/11/03 02:00:13;;;;;;;3.92;1.70;;;7.00;99.90;;;;;;6210055;28;20053;-80
2022/11/03 02:03:16;;;;;;;6.38;1.73;;;7.00;99.90;;;;;;6209115;28;20046;-80
2022/11/03 02:06:21;;;;;;;13.80;2.00;;;6.90;99.90;;;;;;6208343;28;20057;-82
2022/11/03 02:09:23;;;;;;;22.52;2.75;;;6.90;99.90;;;;;;6208404;28;20066;-80
2022/11/03 02:12:26;;;;;;;5.03;1.10;;;6.90;99.90;;;;;;6207930;28;20054;-80
2022/11/03 02:15:29;;;;;;;7.45;1.73;;;6.90;99.90;;;;;;6194840;28;20050;-82
2022/11/03 02:18:33;;;;;;;11.23;2.30;;;6.90;99.90;;;;;;6182460;28;20421;-82
2022/11/03 02:21:45;;;;;;;4.93;1.70;;;6.80;99.90;;;;;;6183157;28;20047;-82
2022/11/03 02:24:50;;;;;;;4.78;1.77;;;6.80;99.90;;;;;;6182871;28;20043;-82
2022/11/03 02:27:53;;;;;;;6.18;1.67;;;6.80;99.90;;;;;;6181557;28;20058;-81
2022/11/03 02:31:03;;;;;;;3.10;1.50;;;6.70;99.90;;;;;;6179811;28;20051;-81
2022/11/03 02:34:08;;;;;;;4.47;2.15;;;6.70;99.90;;;;;;6179423;28;20078;-81
2022/11/03 02:37:15;;;;;;;3.90;1.45;;;6.70;99.90;;;;;;6179781;28;20042;-81
2022/11/03 02:40:23;;;;;;;3.58;1.52;;;6.70;99.90;;;;;;6180927;28;20055;-81
2022/11/03 02:43:27;;;;;;;3.53;1.25;;;6.60;99.90;;;;;;6179733;28;20527;-81
2022/11/03 02:46:31;;;;;;;4.88;1.90;;;6.60;99.90;;;;;;6180036;28;20046;-81
2022/11/03 02:49:38;;;;;;;71.32;25.55;;;6.60;99.90;;;;;;6177339;28;20035;-79
2022/11/03 02:52:42;;;;;;;7.72;4.20;;;6.60;99.90;;;;;;6178528;28;20055;-80
2022/11/03 02:55:52;;;;;;;6.40;1.92;;;6.60;99.90;;;;;;6178513;28;20047;-80
2022/11/03 02:58:59;;;;;;;4.22;1.10;;;6.60;99.90;;;;;;6178947;28;20463;-80
2022/11/03 03:02:06;;;;;;;10.30;1.43;;;6.60;99.90;;;;;;6178900;28;20050;-80
2022/11/03 03:05:11;;;;;;;4.45;1.45;;;6.50;99.90;;;;;;6178386;28;20493;-80
2022/11/03 03:08:14;;;;;;;6.28;2.50;;;6.50;99.90;;;;;;6178690;28;20448;-80
2022/11/03 03:11:35;;;;;;;8.75;1.70;;;6.50;99.90;;;;;;6179092;28;20486;-80
2022/11/03 03:14:40;;;;;;;4.50;1.80;;;6.50;99.90;;;;;;6178182;28;20097;-81
2022/11/03 03:17:48;;;;;;;3.72;1.50;;;6.60;99.90;;;;;;6176446;28;20051;-81
2022/11/03 03:20:54;;;;;;;5.20;1.58;;;6.60;99.90;;;;;;6178252;28;20062;-80
2022/11/03 03:23:59;;;;;;;2.67;1.13;;;6.60;99.90;;;;;;6178185;28;20047;-80
2022/11/03 03:27:04;;;;;;;3.95;1.42;;;6.50;99.90;;;;;;6178576;28;20050;-80
2022/11/03 03:30:08;;;;;;;6.45;1.17;;;6.50;99.90;;;;;;6177850;28;20047;-80
2022/11/03 03:33:12;;;;;;;2.22;1.27;;;6.50;99.90;;;;;;6177722;28;20054;-80
2022/11/03 03:36:18;;;;;;;4.05;1.55;;;6.60;99.90;;;;;;6178531;28;20540;-80
2022/11/03 03:39:21;;;;;;;1.90;1.33;;;6.60;99.90;;;;;;6177498;28;20508;-80
2022/11/03 03:42:26;;;;;;;8.02;1.73;;;6.60;99.90;;;;;;6177752;28;20047;-80
2022/11/03 03:45:31;;;;;;;7.65;1.42;;;6.60;99.90;;;;;;6177139;28;20051;-81
2022/11/03 03:48:33;;;;;;;12.73;1.60;;;6.60;99.90;;;;;;6184238;28;20069;-81
2022/11/03 03:51:36;;;;;;;4.15;1.75;;;6.60;99.90;;;;;;6183227;28;20057;-81
2022/11/03 03:54:38;;;;;;;5.00;1.48;;;6.60;99.90;;;;;;6183122;28;20047;-81
2022/11/03 03:57:39;;;;;;;2.13;1.52;;;6.60;99.90;;;;;;6182647;28;20051;-81
2022/11/03 04:00:43;;;;;;;4.95;1.17;;;6.60;99.90;;;;;;6184372;28;20061;-79
2022/11/03 04:03:44;;;;;;;1.70;1.08;;;6.60;99.90;;;;;;6182462;28;20527;-79
2022/11/03 04:06:46;;;;;;;7.75;1.55;;;6.60;99.90;;;;;;6183101;28;20051;-81
2022/11/03 04:09:48;;;;;;;9.55;1.65;;;6.60;99.90;;;;;;6182484;28;20047;-81
2022/11/03 04:22:50;;;;;;;5.53;1.90;;;6.50;99.90;;;;;;6183458;28;20042;-80
2022/11/03 04:25:53;;;;;;;3.20;1.13;;;6.50;99.90;;;;;;6183477;28;20047;-81
2022/11/03 04:28:55;;;;;;;7.07;1.50;;;6.50;99.90;;;;;;6183019;28;20058;-81
2022/11/03 04:31:59;;;;;;;8.88;1.52;;;6.50;99.90;;;;;;6183339;28;20050;-81
2022/11/03 04:35:01;;;;;;;2.72;1.10;;;6.50;99.90;;;;;;6182459;28;20047;-81
2022/11/03 04:38:09;;;;;;;5.15;1.00;;;6.50;99.90;;;;;;6182905;28;20057;-80
2022/11/03 04:41:16;;;;;;;4.18;1.38;;;6.50;99.90;;;;;;6182166;28;20522;-82
2022/11/03 04:44:18;;;;;;;3.10;1.55;;;6.50;99.90;;;;;;6183024;28;20051;-81
2022/11/03 04:47:21;;;;;;;5.82;1.70;;;6.50;99.90;;;;;;6181651;28;20386;-81
2022/11/03 04:50:24;;;;;;;5.30;1.75;;;6.50;99.90;;;;;;6182336;28;20488;-80
2022/11/03 04:53:30;;;;;;;2.33;1.23;;;6.50;99.90;;;;;;6181823;28;20049;-81
2022/11/03 04:56:32;;;;;;;5.47;1.38;;;6.40;99.90;;;;;;6183023;28;20056;-80
2022/11/03 04:59:34;;;;;;;4.55;1.25;;;6.40;99.90;;;;;;6179804;28;20491;-81
2022/11/03 05:02:37;;;;;;;2.63;1.40;;;6.40;99.90;;;;;;6181516;28;20709;-80
2022/11/03 05:05:39;;;;;;;9.07;1.23;;;6.40;99.90;;;;;;6181536;28;20043;-80
2022/11/03 05:08:42;;;;;;;6.40;2.45;;;6.40;99.90;;;;;;6182288;28;20057;-81
2022/11/03 05:11:46;;;;;;;3.92;1.85;;;6.40;99.90;;;;;;6182033;28;20051;-81
2022/11/03 05:14:47;;;;;;;3.20;1.65;;;6.40;99.90;;;;;;6181300;28;20043;-81
2022/11/03 05:17:50;;;;;;;4.03;1.30;;;6.40;99.90;;;;;;6180413;28;20046;-79
2022/11/03 05:20:57;;;;;;;5.13;1.35;;;6.40;99.90;;;;;;6177882;28;20431;-80
2022/11/03 05:24:03;;;;;;;2.78;1.02;;;6.50;99.90;;;;;;6179914;28;20477;-79
2022/11/03 05:27:13;;;;;;;5.35;1.40;;;6.50;99.90;;;;;;6180470;28;20050;-81
2022/11/03 05:30:15;;;;;;;1.63;1.08;;;6.50;99.90;;;;;;6180301;28;20481;-81
2022/11/03 05:33:28;;;;;;;2.13;0.98;;;6.50;99.90;;;;;;6179648;28;20082;-80
2022/11/03 05:36:31;;;;;;;3.20;1.73;;;6.50;99.90;;;;;;6186238;28;20054;-80
2022/11/03 05:39:36;;;;;;;1.63;1.10;;;6.50;99.90;;;;;;6188069;28;20047;-80
2022/11/03 05:42:41;;;;;;;4.32;1.52;;;6.50;99.90;;;;;;6182806;28;20417;-80
2022/11/03 05:45:43;;;;;;;4.20;1.63;;;6.50;99.90;;;;;;6179187;28;20054;-80
2022/11/03 05:48:48;;;;;;;5.40;0.95;;;6.50;99.90;;;;;;6178552;28;20058;-80
2022/11/03 05:51:50;;;;;;;7.43;1.20;;;6.50;99.90;;;;;;6179162;28;20129;-80
2022/11/03 05:54:53;;;;;;;7.45;1.70;;;6.50;99.90;;;;;;6178474;28;20420;-79
2022/11/03 05:57:57;;;;;;;3.25;1.45;;;6.50;99.90;;;;;;6177757;28;20092;-80
2022/11/03 06:01:02;;;;;;;8.20;1.45;;;6.60;99.90;;;;;;6177645;28;20062;-79
2022/11/03 06:04:18;;;;;;;1.73;1.05;;;6.50;99.90;;;;;;6178666;28;20465;-80
2022/11/03 06:07:24;;;;;;;3.28;1.58;;;6.60;99.90;;;;;;6177208;28;20051;-80
2022/11/03 06:10:29;;;;;;;3.55;1.55;;;6.60;99.90;;;;;;6177637;28;20054;-80
2022/11/03 06:13:34;;;;;;;3.13;1.45;;;6.70;99.90;;;;;;6178099;28;20057;-80
2022/11/03 06:16:39;;;;;;;8.75;1.20;;;6.70;99.90;;;;;;6178166;28;20059;-80
2022/11/03 06:19:46;;;;;;;5.88;1.58;;;6.80;99.90;;;;;;6176242;28;20043;-80
2022/11/03 06:22:49;;;;;;;5.90;1.30;;;6.90;99.90;;;;;;6178764;28;20043;-80
2022/11/03 06:25:53;;;;;;;5.10;1.33;;;7.00;99.90;;;;;;6178957;28;20051;-79
2022/11/03 06:28:55;;;;;;;7.72;2.10;;;7.10;99.90;;;;;;6178205;28;20050;-80
2022/11/03 06:31:57;;;;;;;6.28;1.67;;;7.20;99.90;;;;;;6178648;28;20486;-80
2022/11/03 06:35:01;;;;;;;5.55;1.75;;;7.20;99.90;;;;;;6177665;28;20126;-80
2022/11/03 06:38:02;;;;;;;4.38;2.28;;;7.30;99.90;;;;;;6176981;28;20050;-79
2022/11/03 06:41:04;;;;;;;6.53;3.15;;;7.40;99.90;;;;;;6177066;28;20046;-80
2022/11/03 06:44:21;;;;;;;7.07;2.10;;;7.40;99.90;;;;;;6178108;28;20055;-80
2022/11/03 06:47:24;;;;;;;8.98;2.03;;;7.50;99.90;;;;;;6177233;28;20051;-80
2022/11/03 06:50:31;;;;;;;5.28;2.15;;;7.70;99.90;;;;;;6178164;28;20050;-80
2022/11/03 06:53:33;;;;;;;8.82;4.18;;;7.80;99.90;;;;;;6176424;28;20446;-80
2022/11/03 06:56:36;;;;;;;8.75;3.67;;;7.90;99.90;;;;;;6178668;28;20420;-80
2022/11/03 06:59:38;;;;;;;11.45;3.13;;;8.00;99.90;;;;;;6178597;28;20053;-80
2022/11/03 07:02:53;;;;;;;9.70;3.25;;;8.20;99.90;;;;;;6179265;28;20074;-80
2022/11/03 07:06:01;;;;;;;5.43;2.10;;;8.30;99.90;;;;;;6178636;28;20046;-80
2022/11/03 07:09:08;;;;;;;5.15;2.58;;;8.40;99.90;;;;;;6178626;28;20433;-80
2022/11/03 07:12:16;;;;;;;3.58;2.80;;;8.50;99.90;;;;;;6178677;28;20047;-80
2022/11/03 07:15:26;;;;;;;7.03;1.98;;;8.60;99.90;;;;;;6176848;28;20039;-80
2022/11/03 07:18:33;;;;;;;4.60;1.90;;;8.70;99.90;;;;;;6176060;28;20058;-80
2022/11/03 07:21:40;;;;;;;12.07;2.67;;;8.90;99.90;;;;;;6173946;28;20046;-79
2022/11/03 07:24:45;;;;;;;17.60;2.20;;;9.00;99.90;;;;;;6151003;28;20055;-80
2022/11/03 07:27:49;;;;;;;6.78;2.13;;;9.10;99.90;;;;;;6175515;28;20416;-80
2022/11/03 07:30:51;;;;;;;13.30;2.67;;;9.20;99.90;;;;;;6175666;28;20050;-80
2022/11/03 07:33:57;;;;;;;10.10;2.20;;;9.30;99.90;;;;;;6175931;28;20046;-80
2022/11/03 07:37:00;;;;;;;4.65;2.17;;;9.40;99.90;;;;;;6175718;28;20054;-80
2022/11/03 07:40:03;;;;;;;11.73;2.53;;;9.60;99.90;;;;;;6175822;28;20051;-79
2022/11/03 07:43:16;;;;;;;9.52;1.63;;;9.70;99.90;;;;;;6175124;28;20430;-80
2022/11/03 07:46:20;;;;;;;8.57;3.67;;;9.90;99.90;;;;;;6175241;28;20054;-80
2022/11/03 07:49:26;;;;;;;19.63;7.10;;;10.00;99.90;;;;;;6177330;28;20043;-79
2022/11/03 07:52:29;;;;;;;12.30;3.03;;;10.10;99.90;;;;;;6184475;28;20058;-80
2022/11/03 07:55:31;;;;;;;9.45;4.00;;;10.30;99.90;;;;;;6177500;28;20047;-80
2022/11/03 07:58:35;;;;;;;4.00;2.58;;;10.50;99.90;;;;;;6181167;28;20047;-80
2022/11/03 08:01:40;;;;;;;11.95;3.10;;;10.70;99.90;;;;;;6174688;28;20077;-80
2022/11/03 08:04:41;;;;;;;10.95;3.35;;;10.90;99.90;;;;;;6176123;28;20049;-80
2022/11/03 08:07:44;;;;;;;8.77;2.78;;;11.00;99.90;;;;;;6177505;28;20053;-80
2022/11/03 08:10:46;;;;;;;12.25;2.72;;;11.20;99.90;;;;;;6177475;28;20493;-81
2022/11/03 08:13:48;;;;;;;13.27;2.40;;;11.30;99.90;;;;;;6176281;28;20054;-80
2022/11/03 08:16:50;;;;;;;5.68;2.20;;;11.50;99.90;;;;;;6176132;28;20497;-80
2022/11/03 08:19:51;;;;;;;8.70;2.72;;;11.60;99.90;;;;;;6176192;28;20063;-80
2022/11/03 08:22:54;;;;;;;5.32;1.75;;;11.70;99.90;;;;;;6175651;28;20051;-80
2022/11/03 08:25:56;;;;;;;5.93;2.25;;;11.90;99.90;;;;;;6177738;28;20043;-80
2022/11/03 08:28:58;;;;;;;10.57;2.17;;;12.20;99.90;;;;;;6177328;28;20057;-80
2022/11/03 08:32:00;;;;;;;3.95;1.73;;;12.40;99.90;;;;;;6178433;28;20390;-81
2022/11/03 08:35:01;;;;;;;3.58;1.73;;;12.70;99.90;;;;;;6181826;28;20053;-80
2022/11/03 08:38:04;;;;;;;4.57;1.73;;;13.00;99.80;;;;;;6180833;28;20074;-80
2022/11/03 08:41:06;;;;;;;7.13;2.22;;;13.20;99.70;;;;;;6181904;28;20413;-81
2022/11/03 08:44:08;;;;;;;4.82;2.00;;;13.50;99.60;;;;;;6183086;28;20051;-80
2022/11/03 08:47:10;;;;;;;6.38;2.80;;;13.80;99.40;;;;;;6184077;28;20054;-81
2022/11/03 08:50:12;;;;;;;9.50;2.55;;;14.00;99.10;;;;;;6184426;28;20054;-82
2022/11/03 08:53:15;;;;;;;4.95;2.10;;;14.20;99.00;;;;;;6185400;28;20057;-81
2022/11/03 08:56:16;;;;;;;5.75;2.08;;;14.40;98.80;;;;;;6185456;28;20070;-82
2022/11/03 08:59:18;;;;;;;7.60;2.63;;;14.60;98.50;;;;;;6184637;28;20050;-81
2022/11/03 09:02:20;;;;;;;5.72;2.20;;;14.80;98.40;;;;;;6185203;28;20047;-81
2022/11/03 09:05:21;;;;;;;6.60;2.88;;;15.00;98.10;;;;;;6185199;28;20069;-81
2022/11/03 09:08:24;;;;;;;4.20;2.63;;;15.20;97.90;;;;;;6184739;28;20051;-81
2022/11/03 09:11:26;;;;;;;8.63;3.00;;;15.40;97.70;;;;;;6183689;28;20057;-80
2022/11/03 09:14:28;;;;;;;10.27;3.72;;;15.60;97.40;;;;;;6184439;28;20050;-81
2022/11/03 09:17:29;;;;;;;9.43;2.63;;;15.70;97.20;;;;;;6184535;28;20042;-81
2022/11/03 09:20:31;;;;;;;8.88;3.20;;;15.90;97.00;;;;;;6184848;28;20054;-81
2022/11/03 09:23:34;;;;;;;9.05;2.83;;;16.10;96.70;;;;;;6179452;28;20042;-79
2022/11/03 09:26:37;;;;;;;6.38;2.60;;;16.20;96.30;;;;;;6181333;28;20054;-81
2022/11/03 09:29:38;;;;;;;6.25;2.88;;;16.30;96.00;;;;;;6182399;28;20050;-80
2022/11/03 09:32:40;;;;;;;12.40;3.63;;;16.30;95.60;;;;;;6182732;28;20078;-81
2022/11/03 09:35:42;;;;;;;17.40;3.00;;;16.30;95.60;;;;;;6182762;28;20050;-81
2022/11/03 09:38:45;;;;;;;9.70;3.45;;;16.30;95.50;;;;;;6180342;28;20057;-79
2022/11/03 09:41:47;;;;;;;5.95;2.50;;;16.40;95.20;;;;;;6181095;28;20480;-79
2022/11/03 09:44:50;;;;;;;17.73;5.07;;;16.40;95.00;;;;;;6179450;28;20047;-80
2022/11/03 09:47:52;;;;;;;16.75;3.38;;;16.40;94.80;;;;;;6204815;28;20057;-81
2022/11/03 09:50:54;;;;;;;8.82;3.65;;;16.40;94.60;;;;;;6204862;28;20053;-80
2022/11/03 09:54:02;;;;;;;11.95;3.13;;;16.20;94.50;;;;;;6205136;28;20050;-80
2022/11/03 09:57:12;;;;;;;6.57;3.07;;;16.00;94.60;;;;;;6195396;28;20046;-80
2022/11/03 10:00:18;;;;;;;6.28;2.85;;;16.00;94.60;;;;;;6181167;28;20061;-80
2022/11/03 10:03:20;;;;;;;14.48;2.65;;;16.00;94.50;;;;;;6181656;28;20413;-81
2022/11/03 10:06:21;;;;;;;13.02;2.97;;;16.00;94.40;;;;;;6180261;28;20054;-80
2022/11/03 10:09:27;;;;;;;8.52;3.47;;;16.00;94.30;;;;;;6178317;28;20047;-80
2022/11/03 10:12:31;;;;;;;14.77;3.50;;;16.10;94.30;;;;;;6180750;28;20139;-80
2022/11/03 10:15:33;;;;;;;12.40;3.33;;;16.10;94.30;;;;;;6178914;28;20047;-80
2022/11/03 10:18:36;;;;;;;8.32;3.88;;;16.10;94.30;;;;;;6180075;28;20054;-80
2022/11/03 10:21:39;;;;;;;5.80;2.63;;;16.10;94.40;;;;;;6180665;28;20049;-80
2022/11/03 10:24:42;;;;;;;7.60;2.55;;;16.20;94.40;;;;;;6178825;28;20050;-80
2022/11/03 10:27:43;;;;;;;8.38;2.83;;;16.20;94.40;;;;;;6179895;28;20054;-80
2022/11/03 10:30:53;;;;;;;5.40;2.40;;;16.40;94.60;;;;;;6180278;28;20429;-80
2022/11/03 10:33:56;;;;;;;10.50;2.30;;;17.00;94.50;;;;;;6179615;28;20047;-80
2022/11/03 10:37:25;;;;;;;7.43;1.80;;;17.40;94.00;;;;;;6180002;28;20054;-80
2022/11/03 10:40:36;;;;;;;8.40;1.80;;;17.60;93.50;;;;;;6168221;28;20077;-80
2022/11/03 10:43:39;;;;;;;4.78;2.42;;;17.50;93.40;;;;;;6179962;28;20057;-80
2022/11/03 10:46:41;;;;;;;12.30;2.70;;;17.60;93.10;;;;;;6181720;28;20047;-80
2022/11/03 10:49:43;;;;;;;7.28;2.70;;;17.70;92.90;;;;;;6184587;28;20524;-80
2022/11/03 10:52:45;;;;;;;8.45;2.10;;;17.80;92.70;;;;;;6183359;28;20059;-80
2022/11/03 10:55:48;;;;;;;8.32;1.65;;;17.70;92.60;;;;;;6179729;28;20050;-80
2022/11/03 10:58:49;;;;;;;9.10;1.73;;;17.70;92.50;;;;;;6179733;28;20050;-80
2022/11/03 11:01:51;;;;;;;4.13;1.40;;;17.70;92.30;;;;;;6180132;28;20046;-80
2022/11/03 11:04:59;;;;;;;16.50;2.40;;;17.70;92.00;;;;;;6179693;28;20070;-80
2022/11/03 11:08:01;;;;;;;18.13;3.00;;;17.70;92.00;;;;;;6179997;28;20050;-81
2022/11/03 11:11:07;;;;;;;5.47;1.67;;;17.60;91.80;;;;;;6179350;28;20059;-80
2022/11/03 11:14:23;;;;;;;7.63;1.83;;;17.60;91.80;;;;;;6179627;28;20047;-80
2022/11/03 11:17:46;;;;;;;7.13;1.73;;;17.60;91.80;;;;;;6179088;28;20046;-80
2022/11/03 11:20:47;;;;;;;10.63;2.72;;;17.80;91.70;;;;;;6180488;28;20058;-81
2022/11/03 11:23:51;;;;;;;8.30;1.83;;;17.90;91.60;;;;;;6179114;28;20059;-80
2022/11/03 11:26:54;;;;;;;12.32;2.28;;;18.20;91.70;;;;;;6178697;28;20055;-80
2022/11/03 11:29:56;;;;;;;6.43;2.05;;;18.40;91.00;;;;;;6178967;28;20055;-80
2022/11/03 11:33:00;;;;;;;12.05;2.22;;;18.40;90.60;;;;;;6179054;28;20488;-80
2022/11/03 11:36:08;;;;;;;8.50;2.08;;;18.40;90.50;;;;;;6178986;28;20485;-80
2022/11/03 11:39:11;;;;;;;5.38;1.75;;;18.20;90.50;;;;;;6179524;28;20053;-80
2022/11/03 11:42:16;;;;;;;6.28;1.77;;;18.20;90.60;;;;;;6179082;28;20089;-80
2022/11/03 11:45:56;;;;;;;2.97;1.27;;;18.30;90.40;;;;;;6179032;28;20050;-80
2022/11/03 11:49:16;;;;;;;8.18;1.98;;;18.30;90.20;;;;;;6178338;28;20047;-80
2022/11/03 11:52:17;;;;;;;9.90;2.13;;;18.30;90.00;;;;;;6179080;28;20505;-80
2022/11/03 11:55:25;;;;;;;8.27;1.48;;;18.20;90.00;;;;;;6179339;28;20047;-80
2022/11/03 11:58:41;;;;;;;11.20;2.08;;;18.20;89.80;;;;;;6180717;28;20043;-80
2022/11/03 12:01:43;;;;;;;5.18;2.08;;;18.10;90.00;;;;;;6178443;28;20050;-80
2022/11/03 12:04:47;;;;;;;3.88;1.75;;;18.00;90.00;;;;;;6178849;28;20050;-79
2022/11/03 12:07:48;;;;;;;2.25;1.48;;;17.90;90.00;;;;;;6180703;28;20043;-80
2022/11/03 12:10:54;;;;;;;3.95;1.60;;;17.90;89.90;;;;;;6184277;28;20456;-80
2022/11/03 12:13:57;;;;;;;5.45;2.33;;;17.70;90.00;;;;;;6182692;28;20051;-80
2022/11/03 12:17:20;;;;;;;9.13;1.90;;;17.70;90.10;;;;;;6182335;28;20058;-80
2022/11/03 12:20:35;;;;;;;8.80;1.38;;;17.60;90.10;;;;;;6183144;28;20489;-80
2022/11/03 12:23:40;;;;;;;4.78;1.75;;;17.40;90.30;;;;;;6182306;28;20050;-81
2022/11/03 12:26:41;;;;;;;17.60;2.67;;;17.30;90.30;;;;;;6181360;28;20038;-81
2022/11/03 12:29:44;;;;;;;5.90;2.08;;;17.00;90.40;;;;;;6182666;28;20051;-80
2022/11/03 12:32:47;;;;;;;11.65;1.90;;;16.90;90.60;;;;;;6183390;28;20061;-80
2022/11/03 12:35:49;;;;;;;7.60;2.13;;;16.80;90.70;;;;;;6159630;29;20054;-81
2022/11/03 12:38:52;;;;;;;11.05;2.58;;;16.70;91.00;;;;;;6158157;28;20401;-80
2022/11/03 12:41:53;;;;;;;5.78;2.10;;;16.70;91.00;;;;;;6158800;29;20055;-81
2022/11/03 12:44:56;;;;;;;10.45;2.15;;;16.50;91.00;;;;;;6160188;28;20058;-80
2022/11/03 12:47:58;;;;;;;5.75;1.83;;;16.50;91.20;;;;;;6159863;29;20425;-80
2022/11/03 12:51:00;;;;;;;11.60;2.13;;;16.50;91.20;;;;;;6158061;28;20424;-80
2022/11/03 12:54:01;;;;;;;8.93;1.55;;;16.70;91.20;;;;;;6159003;29;20057;-80
2022/11/03 12:57:03;;;;;;;11.90;2.60;;;16.70;91.10;;;;;;6160335;28;20055;-79
2022/11/03 13:00:08;;;;;;;11.02;2.67;;;16.70;90.90;;;;;;6159616;29;20051;-80
2022/11/03 13:03:10;;;;;;;5.32;2.03;;;16.50;91.10;;;;;;6158256;29;20043;-79
2022/11/03 13:06:13;;;;;;;4.50;1.95;;;16.30;91.20;;;;;;6158830;28;20045;-80
2022/11/03 13:09:15;;;;;;;7.95;2.90;;;16.30;91.40;;;;;;6158272;29;20413;-80
2022/11/03 13:12:32;;;;;;;6.13;2.35;;;16.30;91.50;;;;;;6158867;29;20501;-80
2022/11/03 13:15:35;;;;;;;3.47;1.85;;;16.20;91.60;;;;;;6158311;28;20180;-80
2022/11/03 13:18:37;;;;;;;13.65;2.88;;;16.20;91.70;;;;;;6154606;28;20055;-80
2022/11/03 13:21:39;;;;;;;7.90;3.10;;;16.10;92.00;;;;;;6157601;29;20051;-80
2022/11/03 13:24:40;;;;;;;8.68;3.25;;;16.20;92.00;;;;;;6157876;28;20051;-81
2022/11/03 13:27:42;;;;;;;8.50;3.13;;;16.30;92.00;;;;;;6155783;28;20054;-79
2022/11/03 13:30:45;;;;;;;3.28;1.60;;;16.40;92.00;;;;;;6156739;28;20059;-79
2022/11/03 13:33:47;;;;;;;5.25;2.75;;;16.50;92.20;;;;;;6156951;29;20054;-80
2022/11/03 13:36:48;;;;;;;6.93;2.17;;;16.50;91.90;;;;;;6157716;28;20043;-80
2022/11/03 13:39:50;;;;;;;16.17;2.80;;;16.50;91.90;;;;;;6157193;28;20055;-80
2022/11/03 13:42:52;;;;;;;12.43;2.90;;;16.50;92.10;;;;;;6157448;29;20054;-80
2022/11/03 13:45:57;;;;;;;6.75;3.30;;;16.60;92.00;;;;;;6157512;29;20605;-80
2022/11/03 13:48:59;;;;;;;9.02;3.60;;;16.50;92.00;;;;;;6158327;29;20061;-80
2022/11/03 13:52:00;;;;;;;13.13;2.47;;;16.50;92.00;;;;;;6157495;29;20059;-81
2022/11/03 13:55:02;;;;;;;8.63;2.25;;;16.50;92.30;;;;;;6169526;28;20185;-80
2022/11/03 13:58:05;;;;;;;8.43;3.00;;;16.30;92.10;;;;;;6180699;28;20154;-80
2022/11/03 14:01:08;;;;;;;15.50;3.38;;;16.30;92.40;;;;;;6180690;28;20054;-80
2022/11/03 14:04:09;;;;;;;14.10;2.72;;;16.30;92.50;;;;;;6181310;28;20091;-80
2022/11/03 14:07:11;;;;;;;6.40;2.28;;;16.40;92.50;;;;;;6163265;28;20055;-80
2022/11/03 14:10:13;;;;;;;6.90;2.50;;;16.40;92.40;;;;;;6155820;29;20051;-80
2022/11/03 14:13:15;;;;;;;9.02;2.20;;;16.20;92.50;;;;;;6156292;28;20047;-80
2022/11/03 14:16:18;;;;;;;11.25;3.75;;;16.20;92.80;;;;;;6157084;29;20051;-79
2022/11/03 14:19:20;;;;;;;13.15;2.50;;;16.20;92.90;;;;;;6156756;28;20048;-81
2022/11/03 14:22:22;;;;;;;5.20;2.47;;;16.30;93.00;;;;;;6156671;28;20054;-81
2022/11/03 14:25:24;;;;;;;7.55;2.63;;;16.30;92.90;;;;;;6155938;29;20181;-80
2022/11/03 14:28:26;;;;;;;10.85;2.47;;;16.20;92.90;;;;;;6154217;29;20050;-80
2022/11/03 14:31:29;;;;;;;7.65;2.08;;;16.20;93.00;;;;;;6154454;28;20050;-80
2022/11/03 14:34:30;;;;;;;10.82;2.65;;;16.10;93.20;;;;;;6155867;29;20047;-81
2022/11/03 14:37:32;;;;;;;5.80;2.17;;;16.20;93.30;;;;;;6155612;29;20043;-80
2022/11/03 14:43:53;;;;;;;10.80;2.38;;;16.40;93.20;;;;;;6154842;29;20047;-81
2022/11/03 14:46:56;;;;;;;6.60;3.65;;;16.50;93.20;;;;;;6154480;28;20051;-80
2022/11/03 14:49:58;;;;;;;9.23;5.35;;;16.60;93.30;;;;;;6155218;29;20055;-81
2022/11/03 14:52:59;;;;;;;9.73;2.88;;;16.70;93.20;;;;;;6155605;29;20047;-80
2022/11/03 14:56:01;;;;;;;14.00;4.93;;;16.80;93.10;;;;;;6157933;29;20054;-81
2022/11/03 14:59:03;;;;;;;14.75;2.78;;;16.80;93.10;;;;;;6156960;28;20051;-81
2022/11/03 15:02:06;;;;;;;10.00;2.47;;;16.80;93.00;;;;;;6157179;29;20508;-81
2022/11/03 15:05:42;;;;;;;12.20;2.58;;;16.70;93.10;;;;;;6157422;28;20059;-81
2022/11/03 15:08:31;;;;;;;13.73;3.67;;;16.60;93.10;;;;;;6157971;29;20078;-81
2022/11/03 15:11:33;;;;;;;17.25;3.65;;;16.50;93.20;;;;;;6164799;29;20047;-81
2022/11/03 15:14:34;;;;;;;6.13;2.13;;;16.50;93.30;;;;;;6168195;29;20047;-81
2022/11/03 15:17:37;;;;;;;21.23;3.08;;;16.40;93.40;;;;;;6161093;28;20046;-81
2022/11/03 15:20:39;;;;;;;10.88;3.42;;;16.30;93.40;;;;;;6158904;29;20066;-80
2022/11/03 15:23:41;;;;;;;11.35;5.03;;;16.30;93.50;;;;;;6157730;29;20051;-80
2022/11/03 15:26:42;;;;;;;14.00;10.07;;;16.20;93.50;;;;;;6157073;29;20421;-80
2022/11/03 15:29:44;;;;;;;8.80;4.03;;;16.00;93.60;;;;;;6154802;29;20690;-81
2022/11/03 15:32:47;;;;;;;6.32;2.92;;;15.90;93.70;;;;;;6156700;29;20055;-81
2022/11/03 15:35:49;;;;;;;10.57;3.67;;;15.70;93.90;;;;;;6155242;28;20051;-81
2022/11/03 15:38:51;;;;;;;13.88;5.10;;;15.60;94.00;;;;;;6155062;28;20062;-80
2022/11/03 15:41:52;;;;;;;13.13;3.17;;;15.50;94.20;;;;;;6155486;28;20543;-81
2022/11/03 15:44:54;;;;;;;8.57;5.07;;;15.50;94.30;;;;;;6155252;29;20059;-79
2022/11/03 15:47:57;;;;;;;12.18;3.10;;;15.40;94.30;;;;;;6155131;29;20513;-79
2022/11/03 15:50:59;;;;;;;10.98;6.40;;;15.40;94.40;;;;;;6153550;29;20532;-80
2022/11/03 15:54:01;;;;;;;12.77;3.08;;;15.30;94.40;;;;;;6154941;29;20048;-81
2022/11/03 15:57:03;;;;;;;7.25;5.00;;;15.30;94.60;;;;;;6154167;28;20051;-80
2022/11/03 16:00:06;;;;;;;8.65;4.22;;;15.20;94.70;;;;;;6156350;28;20424;-80
2022/11/03 16:03:09;;;;;;;7.45;3.67;;;15.20;94.80;;;;;;6173248;28;20046;-80
2022/11/03 16:06:11;;;;;;;13.93;3.90;;;15.30;94.80;;;;;;6178621;28;20053;-80
2022/11/03 16:09:15;;;;;;;14.95;5.93;;;15.20;95.10;;;;;;6178572;28;20497;-80
2022/11/03 16:12:17;;;;;;;7.65;3.22;;;15.20;94.90;;;;;;6179037;28;20074;-81
2022/11/03 16:15:19;;;;;;;8.07;4.75;;;15.10;95.10;;;;;;6178407;28;20046;-80
2022/11/03 16:18:22;;;;;;;7.03;2.58;;;15.00;95.30;;;;;;6179094;28;20054;-80